Time;durP1;ratioP1;P1;durP2;ratioP2;P2;SDS_P1;SDS_P2;PMS_P1;PMS_P2;Temp;Humidity;BMP_temperature;BMP_pressure;BME280_temperature;BME280_humidity;BME280_pressure;Samples;Min_cycle;Max_cycle;Signal;HPM_P1;HPM_P2
2022/09/28 00:02:25;;;;;;;3.97;2.25;;;;;;;10.13;70.05;95100.84;6213472;22;20032;-81
2022/09/28 00:04:55;;;;;;;1.42;1.00;;;;;;;10.04;70.00;95101.13;6213756;22;20008;-82
2022/09/28 00:07:26;;;;;;;2.78;0.80;;;;;;;9.97;70.34;95091.75;6213708;22;20081;-80
2022/09/28 00:10:00;;;;;;;1.17;0.50;;;;;;;9.89;70.48;95083.22;6213544;22;20017;-82
2022/09/28 00:12:33;;;;;;;0.63;0.40;;;;;;;9.92;70.94;95083.81;6213396;22;20065;-81
2022/09/28 00:15:03;;;;;;;2.63;0.50;;;;;;;9.95;70.97;95073.75;6213754;22;20028;-80
2022/09/28 00:17:36;;;;;;;1.27;0.30;;;;;;;9.98;70.79;95062.91;6213545;22;20013;-80
2022/09/28 00:20:10;;;;;;;1.92;0.43;;;;;;;9.99;70.67;95063.69;6213346;22;20061;-81
2022/09/28 00:22:40;;;;;;;0.30;0.30;;;;;;;9.99;71.15;95053.28;6213422;22;20009;-81
2022/09/28 00:25:27;;;;;;;;;;;;;;;;;;;;;
2022/09/28 00:27:56;;;;;;;0.22;0.22;;;;;;;9.99;70.99;95048.06;6210850;22;20021;-80
2022/09/28 00:30:24;;;;;;;0.63;0.30;;;;;;;10.01;71.05;95040.81;6187812;23;20027;-81
2022/09/28 00:32:55;;;;;;;0.47;0.30;;;;;;;9.97;70.28;95037.88;6195263;23;20021;-79
2022/09/28 00:35:23;;;;;;;1.58;0.60;;;;;;;9.89;70.03;95028.53;6213682;22;20001;-80
2022/09/28 00:38:02;;;;;;;1.17;0.52;;;;;;;9.84;70.98;95020.56;6213505;22;20039;-81
2022/09/28 00:40:31;;;;;;;0.70;0.22;;;;;;;9.79;70.56;95015.19;6212874;22;20008;-81
2022/09/28 00:43:18;;;;;;;0.80;0.40;;;;;;;9.78;71.71;95005.81;6213135;22;20012;-81
2022/09/28 00:45:52;;;;;;;0.68;0.50;;;;;;;9.84;72.61;95004.94;6213349;22;20031;-81
2022/09/28 00:48:20;;;;;;;1.17;0.80;;;;;;;9.88;72.26;94994.88;6213385;22;20012;-81
2022/09/28 00:50:49;;;;;;;0.60;0.40;;;;;;;9.89;71.84;94986.84;6211972;22;20044;-80
2022/09/28 00:53:23;;;;;;;0.80;0.60;;;;;;;9.95;73.50;94979.16;6213190;22;20052;-81
2022/09/28 00:55:57;;;;;;;1.55;0.38;;;;;;;10.01;73.32;94968.69;6223429;22;20013;-81
2022/09/28 00:58:28;;;;;;;0.82;0.60;;;;;;;10.05;72.19;94971.66;6213407;22;20017;-80
2022/09/28 01:00:59;;;;;;;1.30;0.73;;;;;;;10.08;74.01;94953.00;6213047;22;20021;-81
2022/09/28 01:03:28;;;;;;;0.70;0.70;;;;;;;10.11;72.32;94962.97;6213277;22;20044;-81
2022/09/28 01:06:01;;;;;;;3.08;0.77;;;;;;;10.12;72.11;94959.34;6213399;22;20473;-81
2022/09/28 01:08:33;;;;;;;1.67;0.75;;;;;;;10.14;72.75;94952.09;6213190;22;20009;-81
2022/09/28 01:11:03;;;;;;;0.80;0.80;;;;;;;10.19;72.59;94946.22;6212421;22;20005;-81
2022/09/28 01:13:32;;;;;;;1.17;0.73;;;;;;;10.23;73.39;94944.78;6213107;22;20039;-81
2022/09/28 01:16:09;;;;;;;1.05;1.05;;;;;;;10.25;72.43;94934.94;6212791;22;20012;-81
2022/09/28 01:18:47;;;;;;;1.33;1.13;;;;;;;10.22;71.78;94933.56;6212254;22;20017;-81
2022/09/28 01:21:18;;;;;;;1.85;1.15;;;;;;;10.19;72.08;94923.59;6212872;22;20012;-81
2022/09/28 01:24:30;;;;;;;1.20;1.10;;;;;;;10.16;71.96;94921.41;6212752;22;20016;-80
2022/09/28 01:27:06;;;;;;;1.95;1.30;;;;;;;10.15;72.24;94906.81;6212649;22;20243;-81
2022/09/28 01:29:43;;;;;;;3.97;1.10;;;;;;;10.16;72.38;94907.59;6212891;22;20008;-81
2022/09/28 01:32:21;;;;;;;2.03;1.17;;;;;;;10.15;72.47;94891.16;6212667;22;20005;-80
2022/09/28 01:34:57;;;;;;;1.67;1.25;;;;;;;10.17;73.39;94889.16;6212795;22;20013;-81
2022/09/28 01:37:34;;;;;;;2.60;1.38;;;;;;;10.16;72.38;94887.53;6213108;22;20069;-81
2022/09/28 01:40:04;;;;;;;1.45;1.35;;;;;;;10.11;72.30;94879.59;6213072;22;20064;-82
2022/09/28 01:42:38;;;;;;;2.55;1.45;;;;;;;10.12;72.78;94875.97;6213042;22;20028;-80
2022/09/28 01:45:12;;;;;;;2.15;1.40;;;;;;;10.13;72.55;94872.34;6213138;22;20013;-81
2022/09/28 01:47:41;;;;;;;2.35;1.50;;;;;;;10.13;72.43;94864.53;6212736;22;20044;-81
2022/09/28 01:50:13;;;;;;;3.47;1.33;;;;;;;10.16;73.04;94856.28;6212219;22;20012;-81
2022/09/28 01:52:47;;;;;;;3.30;1.38;;;;;;;10.22;73.37;94850.19;6212923;22;20005;-80
2022/09/28 01:55:24;;;;;;;1.60;1.35;;;;;;;10.26;74.72;94851.31;6213025;22;20030;-81
2022/09/28 01:58:00;;;;;;;3.08;1.75;;;;;;;10.33;74.24;94837.44;6212594;22;20013;-81
2022/09/28 02:00:28;;;;;;;1.90;1.33;;;;;;;10.38;73.93;94832.34;6212665;22;20028;-81
2022/09/28 02:03:06;;;;;;;2.08;1.05;;;;;;;10.40;73.91;94831.09;6212658;22;20016;-80
2022/09/28 02:05:36;;;;;;;3.25;1.23;;;;;;;10.43;73.60;94827.25;6212987;22;20023;-80
2022/09/28 02:08:09;;;;;;;1.85;1.20;;;;;;;10.46;74.11;94816.38;6212677;22;20030;-81
2022/09/28 02:10:41;;;;;;;3.22;1.23;;;;;;;10.49;74.41;94811.53;6212523;22;20009;-81
2022/09/28 02:15:52;;;;;;;2.38;1.42;;;;;;;10.53;73.70;94801.44;6207856;22;20084;-81
2022/09/28 02:18:21;;;;;;;2.72;1.15;;;;;;;10.52;72.97;94799.84;6213130;22;20013;-80
2022/09/28 02:21:01;;;;;;;2.75;1.30;;;;;;;10.54;74.13;94797.00;6212996;22;20064;-80
2022/09/28 02:23:35;;;;;;;2.13;1.33;;;;;;;10.51;73.20;94791.22;6214828;22;20020;-80
2022/09/28 02:26:09;;;;;;;3.60;1.50;;;;;;;10.51;73.05;94785.22;6214668;22;20017;-80
2022/09/28 02:28:38;;;;;;;1.60;1.20;;;;;;;10.50;73.39;94794.06;6214669;22;20005;-80
2022/09/28 02:31:08;;;;;;;3.63;1.27;;;;;;;10.52;73.15;94787.59;6214575;22;20012;-81
2022/09/28 02:33:41;;;;;;;2.22;1.05;;;;;;;10.54;73.63;94787.38;6202192;22;20005;-80
2022/09/28 02:36:10;;;;;;;2.53;1.27;;;;;;;10.57;73.89;94788.75;6216132;22;20029;-81
2022/09/28 02:41:33;;;;;;;1.70;1.13;;;;;;;10.55;73.79;94781.16;6211012;22;20088;-80
2022/09/28 02:44:13;;;;;;;2.40;0.90;;;;;;;10.58;74.42;94772.06;6214892;22;20005;-80
2022/09/28 02:46:50;;;;;;;1.13;1.00;;;;;;;10.61;73.94;94775.03;6215192;22;20057;-81
2022/09/28 02:49:28;;;;;;;4.10;1.63;;;;;;;10.64;73.72;94765.97;6214706;22;20005;-81
2022/09/28 02:52:17;;;;;;;1.55;0.63;;;;;;;10.65;73.93;94760.53;6214273;22;20032;-80
2022/09/28 02:55:09;;;;;;;1.65;0.60;;;;;;;10.67;74.23;94761.09;6214598;22;20009;-80
2022/09/28 02:57:48;;;;;;;2.10;0.80;;;;;;;10.67;73.07;94753.28;6214729;22;20004;-80
2022/09/28 03:03:09;;;;;;;2.45;0.98;;;;;;;10.67;73.83;94752.44;6203118;22;20065;-80
2022/09/28 03:05:46;;;;;;;1.98;0.57;;;;;;;10.67;73.49;94753.28;6214535;22;20009;-80
2022/09/28 03:08:23;;;;;;;3.30;0.80;;;;;;;10.65;73.00;94750.09;6214600;22;20012;-80
2022/09/28 03:10:58;;;;;;;2.55;0.68;;;;;;;10.64;73.09;94745.88;6213892;22;20040;-80
2022/09/28 03:13:28;;;;;;;2.20;0.60;;;;;;;10.66;73.70;94735.22;6214369;22;20016;-80
2022/09/28 03:16:08;;;;;;;5.07;1.55;;;;;;;10.68;72.89;94738.41;6214620;22;20012;-80
2022/09/28 03:18:38;;;;;;;2.72;0.90;;;;;;;10.68;73.21;94733.97;6214348;22;20009;-80
2022/09/28 03:21:06;;;;;;;3.75;2.30;;;;;;;10.70;73.09;94723.34;6214023;22;20033;-80
2022/09/28 03:23:35;;;;;;;10.35;3.88;;;;;;;10.70;72.86;94716.28;6214324;22;20017;-80
2022/09/28 03:26:04;;;;;;;5.03;2.42;;;;;;;10.70;73.12;94725.94;6206631;22;20239;-80
2022/09/28 03:28:35;;;;;;;1.20;1.00;;;;;;;10.72;72.91;94724.69;6214327;22;20013;-80
2022/09/28 03:31:03;;;;;;;1.25;0.75;;;;;;;10.71;72.86;94728.31;6214043;22;20015;-80
2022/09/28 03:33:32;;;;;;;1.30;0.80;;;;;;;10.70;72.89;94729.34;6213935;22;20012;-80
2022/09/28 03:36:02;;;;;;;1.88;0.55;;;;;;;10.70;72.87;94723.34;6214249;22;20020;-80
2022/09/28 03:38:31;;;;;;;3.45;0.65;;;;;;;10.71;72.86;94728.31;6214248;22;20004;-80
2022/09/28 03:41:00;;;;;;;2.10;0.63;;;;;;;10.74;73.13;94727.06;6213637;22;20032;-80
2022/09/28 03:43:30;;;;;;;1.40;0.50;;;;;;;10.78;73.85;94728.22;6213687;22;20001;-79
2022/09/28 03:46:01;;;;;;;2.22;0.70;;;;;;;10.79;73.55;94735.00;6214152;22;20032;-80
2022/09/28 03:48:31;;;;;;;0.63;0.45;;;;;;;10.79;73.57;94723.78;6214034;22;20004;-80
2022/09/28 03:51:03;;;;;;;0.77;0.40;;;;;;;10.81;73.22;94721.72;6213818;22;20001;-80
2022/09/28 03:53:32;;;;;;;1.42;0.55;;;;;;;10.84;73.83;94716.06;6214091;22;20009;-80
2022/09/28 03:56:03;;;;;;;3.97;1.42;;;;;;;10.86;73.81;94706.19;6214006;22;20009;-80
2022/09/28 03:58:31;;;;;;;2.40;0.73;;;;;;;10.85;73.00;94700.19;6213850;22;20025;-80
2022/09/28 04:01:04;;;;;;;0.93;0.35;;;;;;;10.88;73.49;94697.09;6213795;22;20005;-80
2022/09/28 04:03:32;;;;;;;0.88;0.60;;;;;;;10.89;73.04;94696.09;6213774;22;20008;-80
2022/09/28 04:06:02;;;;;;;1.48;0.60;;;;;;;10.88;72.95;94697.09;6213907;22;20024;-80
2022/09/28 04:08:31;;;;;;;2.22;0.90;;;;;;;10.87;73.26;94692.13;6214045;22;20031;-80
2022/09/28 04:11:01;;;;;;;2.45;1.02;;;;;;;10.84;73.04;94679.53;6213530;22;20005;-80
2022/09/28 04:13:30;;;;;;;3.03;1.70;;;;;;;10.81;72.80;94677.41;6213735;22;20019;-80
2022/09/28 04:16:00;;;;;;;2.08;1.25;;;;;;;10.76;72.98;94677.28;6213891;22;20060;-80
2022/09/28 04:18:28;;;;;;;3.47;1.60;;;;;;;10.74;72.99;94667.09;6213808;22;20011;-80
2022/09/28 04:23:35;;;;;;;2.75;1.77;;;;;;;10.77;72.89;94671.06;6191157;23;20005;-81
2022/09/28 04:26:06;;;;;;;2.93;2.13;;;;;;;10.76;73.32;94675.47;6215529;23;20057;-80
2022/09/28 04:31:22;;;;;;;1.40;0.90;;;;;;;10.79;73.54;94682.84;6211828;22;20017;-80
2022/09/28 04:33:54;;;;;;;2.03;0.70;;;;;;;10.84;73.62;94680.31;6204018;22;20001;-78
2022/09/28 04:36:23;;;;;;;1.65;0.43;;;;;;;10.88;73.66;94665.81;6212935;22;20016;-81
2022/09/28 04:38:54;;;;;;;1.25;0.60;;;;;;;10.91;73.38;94674.97;6208867;22;20314;-80
2022/09/28 04:41:22;;;;;;;4.78;1.15;;;;;;;10.92;73.04;94682.56;6201880;22;20479;-80
2022/09/28 04:43:50;;;;;;;1.60;1.10;;;;;;;10.93;73.62;94678.16;6191322;23;20044;-80
2022/09/28 04:46:18;;;;;;;2.38;1.20;;;;;;;10.92;73.50;94681.78;6185764;23;20016;-80
2022/09/28 04:48:46;;;;;;;0.70;0.52;;;;;;;10.90;73.35;94674.19;6186859;23;20028;-80
2022/09/28 04:51:14;;;;;;;2.50;0.90;;;;;;;10.94;73.78;94679.75;6185465;23;20017;-80
2022/09/28 04:53:41;;;;;;;2.95;0.90;;;;;;;10.96;74.15;94682.91;6185838;23;20039;-80
2022/09/28 04:56:12;;;;;;;1.15;0.35;;;;;;;10.99;74.42;94687.66;6186632;23;20027;-79
2022/09/28 04:58:41;;;;;;;3.47;1.08;;;;;;;11.02;73.84;94687.22;6200937;23;20353;-79
2022/09/28 05:01:12;;;;;;;1.10;0.95;;;;;;;11.05;74.16;94678.13;6202611;23;20021;-80
2022/09/28 05:03:39;;;;;;;0.70;0.68;;;;;;;11.07;74.09;94684.69;6185507;23;20076;-80
2022/09/28 05:06:08;;;;;;;1.00;0.60;;;;;;;11.09;74.38;94685.25;6184045;23;20025;-78
2022/09/28 05:08:35;;;;;;;5.50;2.85;;;;;;;11.12;74.00;94729.16;6184757;23;20032;-79
2022/09/28 05:11:05;;;;;;;13.10;5.78;;;;;;;11.11;73.79;94730.19;6183461;23;20067;-79
2022/09/28 05:13:40;;;;;;;1.23;0.70;;;;;;;11.09;74.07;94724.41;6184180;23;20032;-79
2022/09/28 05:16:09;;;;;;;0.63;0.40;;;;;;;11.09;73.58;94723.63;6188199;23;20017;-80
2022/09/28 05:18:36;;;;;;;0.60;0.20;;;;;;;11.07;73.41;94725.66;6198166;22;20009;-79
2022/09/28 05:21:08;;;;;;;0.80;0.43;;;;;;;11.03;73.05;94725.31;6201188;23;20073;-79
2022/09/28 05:23:36;;;;;;;1.98;0.50;;;;;;;10.99;73.84;94729.41;6207261;22;20523;-79
2022/09/28 05:26:04;;;;;;;0.52;0.50;;;;;;;10.93;73.84;94736.34;6202185;23;20475;-79
2022/09/28 05:28:34;;;;;;;1.27;0.47;;;;;;;10.88;74.14;94732.84;6200927;23;20048;-79
2022/09/28 05:31:02;;;;;;;2.00;0.52;;;;;;;10.86;74.71;94732.25;6200271;23;20028;-79
2022/09/28 05:33:32;;;;;;;3.08;0.70;;;;;;;10.83;75.12;94741.34;6197272;23;20102;-80
2022/09/28 05:35:59;;;;;;;4.38;0.90;;;;;;;10.83;75.32;94737.94;6196709;23;20484;-80
2022/09/28 05:38:29;;;;;;;0.70;0.30;;;;;;;10.82;75.03;94738.97;6189779;23;20017;-79
2022/09/28 05:40:57;;;;;;;3.88;0.50;;;;;;;10.83;75.16;94751.00;6196629;23;20021;-78
2022/09/28 05:43:28;;;;;;;1.58;0.95;;;;;;;10.80;75.26;94741.81;6193298;23;20048;-79
2022/09/28 05:46:05;;;;;;;1.48;0.47;;;;;;;10.80;76.14;94741.00;6206150;22;20087;-82
2022/09/28 05:48:33;;;;;;;3.05;0.90;;;;;;;10.79;75.77;94739.44;6193028;23;20021;-81
2022/09/28 05:51:00;;;;;;;3.28;1.40;;;;;;;10.78;75.73;94743.84;6184698;23;20024;-82
2022/09/28 05:53:28;;;;;;;1.50;1.17;;;;;;;10.78;75.46;94750.88;6170636;23;20021;-81
2022/09/28 05:55:58;;;;;;;3.97;1.20;;;;;;;10.76;76.05;94756.31;6178859;23;20017;-81
2022/09/28 05:58:25;;;;;;;1.92;0.98;;;;;;;10.75;75.57;94757.34;6187174;23;20028;-81
2022/09/28 06:00:54;;;;;;;1.10;0.88;;;;;;;10.73;75.67;94751.56;6197032;23;20025;-79
2022/09/28 06:03:24;;;;;;;3.03;0.85;;;;;;;10.70;75.27;94752.81;6204760;23;20020;-80
2022/09/28 06:05:51;;;;;;;2.65;0.90;;;;;;;10.69;75.38;94751.22;6189134;23;20027;-78
2022/09/28 06:08:19;;;;;;;2.45;1.10;;;;;;;10.71;75.49;94751.81;6185966;23;20033;-78
2022/09/28 06:10:47;;;;;;;5.22;1.58;;;;;;;10.71;76.20;94754.41;6185022;23;20017;-78
2022/09/28 06:13:14;;;;;;;2.45;1.25;;;;;;;10.73;75.60;94761.97;6184894;23;20123;-79
2022/09/28 06:15:42;;;;;;;5.75;1.30;;;;;;;10.74;75.97;94768.00;6186904;23;20027;-79
2022/09/28 06:18:13;;;;;;;1.65;0.43;;;;;;;10.72;75.41;94758.59;6187138;23;20017;-79
2022/09/28 06:20:43;;;;;;;2.90;0.40;;;;;;;10.72;74.57;94755.19;6185880;23;20037;-78
2022/09/28 06:23:11;;;;;;;3.85;1.40;;;;;;;10.75;75.70;94753.94;6188133;23;20104;-79
2022/09/28 06:25:39;;;;;;;2.45;0.70;;;;;;;10.77;74.97;94751.91;6187668;23;20017;-79
2022/09/28 06:28:09;;;;;;;1.35;0.90;;;;;;;10.75;74.71;94744.28;6187049;23;20036;-79
2022/09/28 06:30:38;;;;;;;1.38;0.50;;;;;;;10.73;74.14;94746.34;6184874;23;20025;-79
2022/09/28 06:33:07;;;;;;;0.73;0.57;;;;;;;10.74;74.93;94744.53;6184830;23;20095;-79
2022/09/28 06:35:35;;;;;;;1.35;0.70;;;;;;;10.76;75.51;94751.13;6185463;23;20021;-79
2022/09/28 06:38:04;;;;;;;3.10;0.93;;;;;;;10.78;75.57;94761.28;6185422;23;20017;-79
2022/09/28 06:40:33;;;;;;;1.55;0.50;;;;;;;10.79;75.68;94781.16;6184084;23;20393;-79
2022/09/28 06:43:03;;;;;;;1.50;0.60;;;;;;;10.79;74.65;94775.94;6185467;23;20079;-79
2022/09/28 06:45:31;;;;;;;0.80;0.80;;;;;;;10.78;75.20;94782.16;6184831;23;20457;-81
2022/09/28 06:48:00;;;;;;;2.58;1.13;;;;;;;10.81;75.60;94779.13;6188466;23;20021;-80
2022/09/28 06:50:31;;;;;;;3.15;1.20;;;;;;;10.83;75.47;94790.91;6185886;23;20023;-81
2022/09/28 06:52:59;;;;;;;2.83;1.20;;;;;;;10.85;75.46;94788.06;6186319;23;20023;-81
2022/09/28 06:55:29;;;;;;;1.27;0.60;;;;;;;10.86;75.42;94782.59;6186783;23;20108;-80
2022/09/28 06:58:01;;;;;;;1.33;0.73;;;;;;;10.88;75.45;94790.22;6186920;23;20035;-81
2022/09/28 07:00:32;;;;;;;1.35;0.80;;;;;;;10.88;74.42;94790.22;6186441;23;20044;-79
2022/09/28 07:03:02;;;;;;;1.42;0.98;;;;;;;10.87;74.82;94784.22;6187400;23;20027;-79
2022/09/28 07:05:34;;;;;;;1.58;0.80;;;;;;;10.89;75.53;94789.22;6187454;23;20442;-79
2022/09/28 07:08:02;;;;;;;1.88;0.90;;;;;;;10.90;75.22;94796.00;6186174;23;20017;-78
2022/09/28 07:10:31;;;;;;;1.55;0.90;;;;;;;10.92;75.16;94801.78;6186328;23;20063;-78
2022/09/28 07:13:02;;;;;;;1.90;0.82;;;;;;;10.93;75.56;94808.56;6185529;23;20021;-79
2022/09/28 07:15:31;;;;;;;1.23;1.02;;;;;;;10.93;75.35;94803.38;6185212;23;20104;-78
2022/09/28 07:17:59;;;;;;;3.72;0.98;;;;;;;10.93;75.23;94806.78;6186743;23;20028;-78
2022/09/28 07:20:31;;;;;;;3.47;1.27;;;;;;;10.95;75.55;94816.19;6183827;23;20013;-79
2022/09/28 07:23:06;;;;;;;0.60;0.60;;;;;;;10.95;74.82;94816.19;6187437;23;20079;-78
2022/09/28 07:25:47;;;;;;;0.95;0.70;;;;;;;10.95;75.44;94824.00;6186851;23;20025;-79
2022/09/28 07:28:16;;;;;;;1.95;0.95;;;;;;;10.95;75.38;94821.41;6187440;23;20099;-78
2022/09/28 07:30:44;;;;;;;1.50;0.60;;;;;;;10.93;75.56;94830.25;6184801;23;20644;-79
2022/09/28 07:33:14;;;;;;;0.93;0.50;;;;;;;10.95;75.55;94834.44;6184469;23;20021;-79
2022/09/28 07:35:50;;;;;;;3.15;1.00;;;;;;;10.95;75.87;94835.22;6185252;23;20025;-78
2022/09/28 07:38:18;;;;;;;1.52;0.82;;;;;;;10.93;74.92;94845.09;6185170;23;20021;-79
2022/09/28 07:43:32;;;;;;;2.20;0.82;;;;;;;10.92;75.37;94853.97;6203408;23;20021;-79
2022/09/28 07:46:00;;;;;;;1.30;0.90;;;;;;;10.92;74.99;94861.78;6191253;23;20361;-79
2022/09/28 07:48:31;;;;;;;1.35;0.82;;;;;;;10.89;75.05;94855.22;6185696;23;20420;-79
2022/09/28 07:50:58;;;;;;;0.82;0.80;;;;;;;10.88;75.48;94868.47;6198442;22;20040;-80
2022/09/28 07:53:31;;;;;;;1.60;0.80;;;;;;;10.90;76.24;94866.44;6191569;22;20099;-79
2022/09/28 07:56:03;;;;;;;0.98;0.60;;;;;;;10.89;75.02;94862.25;6187639;23;20017;-79
2022/09/28 07:58:31;;;;;;;1.00;0.70;;;;;;;10.88;75.17;94869.25;6195818;23;20386;-79
2022/09/28 08:01:02;;;;;;;0.90;0.60;;;;;;;10.89;75.64;94876.09;6197959;23;20778;-79
2022/09/28 08:03:30;;;;;;;2.05;1.13;;;;;;;10.90;75.45;94874.25;6200167;23;20021;-79
2022/09/28 08:05:58;;;;;;;2.15;0.93;;;;;;;10.90;74.89;94880.25;6209327;22;20027;-79
2022/09/28 08:08:26;;;;;;;2.20;1.17;;;;;;;10.92;75.75;94882.66;6203302;23;20040;-79
2022/09/28 08:10:54;;;;;;;4.18;1.65;;;;;;;10.95;76.18;94884.00;6205403;22;20016;-79
2022/09/28 08:13:24;;;;;;;3.08;1.25;;;;;;;10.98;76.50;94884.38;6198702;22;20442;-79
2022/09/28 08:15:54;;;;;;;0.97;0.97;;;;;;;11.00;75.92;94882.31;6191342;23;20025;-77
2022/09/28 08:18:22;;;;;;;3.60;1.90;;;;;;;11.04;75.92;94874.81;6191707;23;20254;-77
2022/09/28 08:23:37;;;;;;;1.85;1.40;;;;;;;11.15;75.71;94879.28;6190510;23;20084;-78
2022/09/28 08:26:05;;;;;;;1.83;1.17;;;;;;;11.20;75.32;94878.59;6190040;23;20032;-79
2022/09/28 08:28:35;;;;;;;3.85;1.48;;;;;;;11.27;75.83;94890.50;6191669;23;20154;-80
2022/09/28 08:31:06;;;;;;;1.90;1.40;;;;;;;11.33;75.72;94889.59;6189011;23;20017;-80
2022/09/28 08:33:34;;;;;;;2.58;1.90;;;;;;;11.40;75.15;94891.28;6190157;23;20342;-80
2022/09/28 08:36:03;;;;;;;4.15;1.80;;;;;;;11.44;74.81;94895.03;6189791;23;20028;-78
2022/09/28 08:38:32;;;;;;;5.35;1.88;;;;;;;11.46;74.48;94900.81;6189139;23;20096;-78
2022/09/28 08:41:06;;;;;;;2.85;1.80;;;;;;;11.47;74.81;94897.97;6185815;23;20127;-76
2022/09/28 08:43:49;;;;;;;5.50;3.05;;;;;;;11.48;73.91;94906.59;6187622;23;20471;-78
2022/09/28 08:46:20;;;;;;;2.25;1.60;;;;;;;11.47;72.63;94908.41;6189015;23;20021;-78
2022/09/28 08:48:58;;;;;;;2.47;1.52;;;;;;;11.47;72.85;94911.00;6190501;23;20021;-82
2022/09/28 08:51:52;;;;;;;4.65;3.00;;;;;;;11.46;72.31;94912.06;6188082;23;20032;-84
2022/09/28 08:54:30;;;;;;;8.73;3.85;;;;;;;11.47;72.89;94918.06;6188489;23;20072;-81
2022/09/28 08:57:03;;;;;;;8.57;4.65;;;;;;;11.46;71.87;94911.25;6187235;23;20361;-83
2022/09/28 08:59:45;;;;;;;8.23;5.50;;;;;;;11.46;72.63;94922.50;6186645;23;20036;-81
2022/09/28 09:02:17;;;;;;;7.43;4.47;;;;;;;11.45;72.20;94917.50;6186197;23;20032;-80
2022/09/28 09:04:45;;;;;;;11.75;6.45;;;;;;;11.46;72.33;94921.72;6185070;23;20059;-79
2022/09/28 09:07:28;;;;;;;6.65;4.60;;;;;;;11.46;74.40;94935.56;6187614;23;20031;-79
2022/09/28 09:10:07;;;;;;;6.75;2.97;;;;;;;11.45;72.12;94922.72;6186705;23;20017;-80
2022/09/28 09:12:43;;;;;;;5.43;2.17;;;;;;;11.43;73.18;94925.53;6188669;23;20461;-83
2022/09/28 09:15:37;;;;;;;3.95;2.20;;;;;;;11.45;72.70;94930.53;6186494;23;20052;-78
2022/09/28 09:18:17;;;;;;;3.95;2.05;;;;;;;11.48;73.17;94943.16;6186706;23;20092;-79
2022/09/28 09:20:51;;;;;;;5.82;1.95;;;;;;;11.49;72.45;94939.50;6185280;23;20025;-79
2022/09/28 09:23:30;;;;;;;4.60;2.00;;;;;;;11.49;72.22;94944.75;6186404;23;20025;-81
2022/09/28 09:26:04;;;;;;;2.63;2.08;;;;;;;11.50;73.54;94944.53;6187510;23;20024;-80
2022/09/28 09:28:47;;;;;;;4.82;2.10;;;;;;;11.55;74.04;94949.84;6188416;23;20032;-79
2022/09/28 09:31:30;;;;;;;3.75;1.85;;;;;;;11.59;73.23;94950.19;6186936;23;20029;-83
2022/09/28 09:34:41;;;;;;;3.83;1.60;;;;;;;11.62;72.59;94951.56;6187867;23;20079;-79
2022/09/28 09:37:22;;;;;;;1.90;1.40;;;;;;;11.62;72.03;94951.56;6190035;23;20048;-79
2022/09/28 09:40:15;;;;;;;1.88;1.40;;;;;;;11.62;72.43;94954.16;6188818;23;20409;-76
2022/09/28 09:42:54;;;;;;;2.30;1.50;;;;;;;11.64;73.15;94959.94;6188645;23;20017;-81
2022/09/28 09:45:35;;;;;;;1.90;1.10;;;;;;;11.66;73.31;94963.91;6187642;23;20029;-79
2022/09/28 09:48:09;;;;;;;4.10;1.50;;;;;;;11.68;71.76;94967.09;6188475;23;20393;-77
2022/09/28 09:50:44;;;;;;;2.58;1.27;;;;;;;11.71;72.59;94971.06;6187370;23;20076;-77
2022/09/28 09:53:19;;;;;;;2.05;1.38;;;;;;;11.73;72.15;94975.03;6187405;23;20031;-76
2022/09/28 09:55:56;;;;;;;1.63;1.52;;;;;;;11.74;71.12;94975.81;6188022;23;20021;-78
2022/09/28 09:58:28;;;;;;;7.82;2.55;;;;;;;11.76;71.07;94973.78;6191613;23;20055;-81
2022/09/28 10:01:01;;;;;;;5.25;3.28;;;;;;;11.79;71.06;94977.78;6189780;23;20016;-77
2022/09/28 10:03:34;;;;;;;4.57;2.42;;;;;;;11.81;71.51;94978.34;6188339;23;20025;-76
2022/09/28 10:06:06;;;;;;;3.85;2.78;;;;;;;11.82;71.83;94980.72;6185439;23;20103;-77
2022/09/28 10:08:39;;;;;;;4.15;2.60;;;;;;;11.84;71.84;94986.50;6187869;23;20021;-77
2022/09/28 10:11:12;;;;;;;5.65;3.40;;;;;;;11.88;72.84;94987.66;6186035;23;20104;-76
2022/09/28 10:13:40;;;;;;;8.63;4.18;;;;;;;11.91;72.07;94991.63;6187511;23;20021;-79
2022/09/28 10:16:08;;;;;;;7.50;4.15;;;;;;;11.93;71.63;94994.81;6187898;23;20656;-80
2022/09/28 10:18:37;;;;;;;4.15;2.30;;;;;;;11.92;70.88;94994.03;6188163;23;20056;-80
2022/09/28 10:21:05;;;;;;;13.05;5.13;;;;;;;11.91;69.97;94994.25;6187173;23;20025;-77
2022/09/28 10:23:36;;;;;;;10.75;4.82;;;;;;;11.90;68.20;94990.84;6187834;23;20357;-79
2022/09/28 10:26:07;;;;;;;9.45;3.28;;;;;;;11.90;67.81;94996.06;6187938;23;20028;-77
2022/09/28 10:28:40;;;;;;;4.40;2.28;;;;;;;11.93;67.88;94995.59;6187030;23;20044;-79
2022/09/28 10:31:34;;;;;;;7.10;2.20;;;;;;;11.97;68.38;94995.94;6186490;23;20025;-78
2022/09/28 10:34:03;;;;;;;4.40;2.20;;;;;;;11.99;68.98;94988.69;6186648;23;20475;-78
2022/09/28 10:36:37;;;;;;;5.53;2.13;;;;;;;12.01;68.91;94989.25;6187241;23;20075;-78
2022/09/28 10:39:05;;;;;;;5.25;1.90;;;;;;;12.03;67.53;94989.81;6188621;23;20096;-78
2022/09/28 10:41:33;;;;;;;3.05;1.70;;;;;;;12.07;67.97;94990.13;6185920;23;20113;-77
2022/09/28 10:44:07;;;;;;;3.90;1.77;;;;;;;12.11;67.00;94991.25;6189255;23;20013;-80
2022/09/28 10:46:38;;;;;;;2.92;1.77;;;;;;;12.14;67.79;94991.59;6188855;23;20391;-79
2022/09/28 10:49:14;;;;;;;2.30;1.52;;;;;;;12.21;67.33;94988.84;6188700;23;20021;-80
2022/09/28 10:51:45;;;;;;;1.90;1.48;;;;;;;12.29;68.18;94993.72;6187758;23;20025;-80
2022/09/28 10:54:16;;;;;;;2.95;1.38;;;;;;;12.34;67.71;94996.44;6188754;23;20024;-78
2022/09/28 10:56:44;;;;;;;2.28;1.38;;;;;;;12.39;65.87;94994.94;6191992;23;20024;-79
2022/09/28 10:59:37;;;;;;;1.73;1.42;;;;;;;12.40;64.87;94999.13;6189801;23;20021;-79
2022/09/28 11:02:17;;;;;;;7.80;2.33;;;;;;;12.42;65.21;94995.28;6187694;23;20028;-80
2022/09/28 11:04:52;;;;;;;3.72;1.70;;;;;;;12.47;65.72;94995.38;6189518;23;20405;-78
2022/09/28 11:07:23;;;;;;;2.50;1.77;;;;;;;12.52;66.39;94998.06;6189147;23;20027;-80
2022/09/28 11:09:53;;;;;;;2.50;1.67;;;;;;;12.58;66.64;94998.97;6188540;23;20027;-78
2022/09/28 11:12:23;;;;;;;4.95;1.40;;;;;;;12.61;64.83;94993.28;6188262;23;20096;-81
2022/09/28 11:14:57;;;;;;;1.55;1.35;;;;;;;12.63;64.79;94986.00;6188865;23;20050;-78
2022/09/28 11:17:28;;;;;;;2.78;1.63;;;;;;;12.68;66.77;94990.50;6188306;23;20069;-78
2022/09/28 11:19:58;;;;;;;3.85;1.83;;;;;;;12.74;65.12;94992.97;6188814;23;20025;-79
2022/09/28 11:22:28;;;;;;;2.50;1.33;;;;;;;12.75;63.97;94991.19;6187481;23;20101;-78
2022/09/28 11:25:20;;;;;;;2.25;1.35;;;;;;;12.78;63.41;94988.88;6188695;23;20509;-78
2022/09/28 11:27:57;;;;;;;4.10;1.65;;;;;;;12.84;62.53;94994.22;6189388;23;20021;-80
2022/09/28 11:30:28;;;;;;;10.77;3.88;;;;;;;12.87;62.15;94993.75;6200731;23;20023;-82
2022/09/28 11:33:02;;;;;;;3.10;1.73;;;;;;;12.86;60.97;94992.94;6187743;23;20536;-78
2022/09/28 11:35:44;;;;;;;3.63;2.22;;;;;;;12.88;62.40;94990.06;6201668;23;20029;-82
2022/09/28 11:38:27;;;;;;;6.85;2.88;;;;;;;12.86;60.82;94992.16;6198196;23;20039;-82
2022/09/28 11:41:09;;;;;;;4.10;1.95;;;;;;;12.85;60.53;94991.34;6199889;23;20028;-81
2022/09/28 11:43:56;;;;;;;5.18;2.10;;;;;;;12.87;60.89;94988.50;6196611;23;20036;-80
2022/09/28 11:46:33;;;;;;;3.70;2.22;;;;;;;12.87;60.25;94983.28;6199240;23;20024;-82
2022/09/28 11:49:07;;;;;;;2.67;1.63;;;;;;;12.87;59.47;94988.50;6198157;23;20032;-81
2022/09/28 11:51:40;;;;;;;3.85;2.25;;;;;;;12.87;59.13;94993.75;6192857;23;20660;-79
2022/09/28 11:54:14;;;;;;;3.78;2.30;;;;;;;12.89;59.03;94983.81;6194139;23;20021;-79
2022/09/28 11:56:45;;;;;;;3.67;2.10;;;;;;;12.93;60.02;94982.34;6192739;23;20502;-77
2022/09/28 11:59:18;;;;;;;5.70;2.58;;;;;;;12.94;59.21;94989.16;6194439;23;20029;-80
2022/09/28 12:01:51;;;;;;;5.32;2.80;;;;;;;12.92;58.56;94991.19;6192996;23;20035;-78
2022/09/28 12:04:24;;;;;;;4.75;2.70;;;;;;;12.88;58.04;94984.84;6194004;23;20021;-79
2022/09/28 12:06:59;;;;;;;5.75;3.10;;;;;;;12.89;59.26;94986.44;6195254;23;20032;-78
2022/09/28 12:09:34;;;;;;;7.40;3.15;;;;;;;12.91;59.85;94984.38;6195435;23;20035;-77
2022/09/28 12:12:09;;;;;;;5.93;2.78;;;;;;;12.91;59.45;94973.91;6194873;23;20104;-80
2022/09/28 12:14:40;;;;;;;4.93;2.55;;;;;;;12.93;59.63;94977.09;6195839;23;20048;-79
2022/09/28 12:17:23;;;;;;;2.30;2.05;;;;;;;12.93;60.73;94971.88;6197246;23;20081;-81
2022/09/28 12:19:54;;;;;;;;;;;;;;;12.98;60.98;94974.56;6197393;23;20021;-81